createdAt,value
2019-05-17T00:01:07.399Z,98.80
2019-05-17T00:03:36.586Z,99.50
2019-05-17T00:06:06.767Z,99.80
2019-05-17T00:08:38.220Z,99.40
2019-05-17T00:11:06.700Z,99.00
2019-05-17T00:13:35.428Z,98.60
2019-05-17T00:16:04.215Z,99.10
2019-05-17T00:18:32.821Z,99.10
2019-05-17T00:21:01.422Z,99.30
2019-05-17T00:23:30.009Z,99.00
2019-05-17T00:25:58.684Z,99.00
2019-05-17T00:28:27.267Z,99.90
2019-05-17T00:30:57.117Z,99.90
2019-05-17T00:33:27.212Z,99.90
2019-05-17T00:35:57.274Z,99.90
2019-05-17T00:38:27.378Z,99.90
2019-05-17T00:40:57.296Z,99.90
2019-05-17T00:43:26.260Z,99.90
2019-05-17T00:45:57.303Z,99.90
2019-05-17T00:48:26.443Z,99.90
2019-05-17T00:51:01.148Z,99.90
2019-05-17T00:53:26.919Z,99.90
2019-05-17T00:55:57.308Z,99.90
2019-05-17T00:58:26.299Z,99.90
2019-05-17T01:00:57.059Z,99.90
2019-05-17T01:03:26.950Z,99.90
2019-05-17T01:05:56.763Z,99.90
2019-05-17T01:08:26.534Z,99.90
2019-05-17T01:10:56.611Z,99.90
2019-05-17T01:13:26.680Z,99.90
2019-05-17T01:15:56.592Z,99.90
2019-05-17T01:18:26.908Z,99.90
2019-05-17T01:20:56.795Z,99.90
2019-05-17T01:23:27.118Z,99.90
2019-05-17T01:25:56.688Z,99.90
2019-05-17T01:28:26.955Z,99.90
2019-05-17T01:30:56.964Z,99.90
2019-05-17T01:33:26.590Z,99.90
2019-05-17T01:35:57.326Z,99.90
2019-05-17T01:38:26.923Z,99.90
2019-05-17T01:40:56.442Z,99.90
2019-05-17T01:43:27.184Z,99.90
2019-05-17T01:45:57.400Z,99.90
2019-05-17T01:48:27.041Z,99.90
2019-05-17T01:50:56.807Z,99.90
2019-05-17T01:53:27.027Z,99.90
2019-05-17T01:55:56.823Z,99.90
2019-05-17T01:58:26.951Z,99.90
2019-05-17T02:00:57.382Z,99.90
2019-05-17T02:03:26.759Z,99.90
2019-05-17T02:08:56.894Z,99.90
2019-05-17T02:11:26.980Z,99.90
2019-05-17T02:13:56.197Z,99.90
2019-05-17T02:16:26.760Z,99.90
2019-05-17T02:18:57.215Z,99.90
2019-05-17T02:21:27.383Z,99.90
2019-05-17T02:23:57.113Z,99.90
2019-05-17T02:26:26.693Z,99.90
2019-05-17T02:28:55.429Z,99.90
2019-05-17T02:31:24.879Z,99.90
2019-05-17T02:33:53.659Z,99.90
2019-05-17T02:36:22.917Z,99.90
2019-05-17T02:38:53.183Z,99.50
2019-05-17T02:41:22.703Z,99.80
2019-05-17T02:43:53.424Z,99.50
2019-05-17T02:46:23.062Z,99.70
2019-05-17T02:48:53.801Z,99.30
2019-05-17T02:51:23.638Z,99.60
2019-05-17T02:53:52.713Z,99.90
2019-05-17T02:56:23.061Z,99.40
2019-05-17T02:58:53.358Z,99.90
2019-05-17T03:01:23.079Z,99.90
2019-05-17T03:03:52.945Z,99.90
2019-05-17T03:06:22.752Z,99.90
2019-05-17T03:08:52.482Z,99.90
2019-05-17T03:11:22.759Z,99.90
2019-05-17T03:13:52.549Z,99.90
2019-05-17T03:16:23.680Z,99.90
2019-05-17T03:18:53.038Z,99.90
2019-05-17T03:21:22.941Z,99.90
2019-05-17T03:23:53.968Z,99.90
2019-05-17T03:26:23.064Z,99.90
2019-05-17T03:28:53.782Z,99.90
2019-05-17T03:31:26.238Z,99.90
2019-05-17T03:33:55.646Z,99.90
2019-05-17T03:36:26.161Z,99.90
2019-05-17T03:38:53.493Z,99.90
2019-05-17T03:41:28.478Z,99.90
2019-05-17T03:43:53.310Z,99.90
2019-05-17T03:46:23.218Z,99.90
2019-05-17T03:48:53.250Z,99.90
2019-05-17T03:51:23.264Z,99.90
2019-05-17T03:53:53.168Z,99.90
2019-05-17T03:56:22.534Z,99.90
2019-05-17T03:58:53.185Z,99.90
2019-05-17T04:01:23.194Z,99.90
2019-05-17T04:03:53.146Z,99.90
2019-05-17T04:06:23.812Z,99.90
2019-05-17T04:08:52.867Z,99.90
2019-05-17T04:11:30.987Z,99.90
2019-05-17T04:13:53.741Z,99.90
2019-05-17T04:16:23.810Z,99.90
2019-05-17T04:18:53.503Z,99.90
2019-05-17T04:21:23.503Z,99.90
2019-05-17T04:23:53.787Z,99.90
2019-05-17T04:26:22.983Z,99.90
2019-05-17T04:28:53.220Z,99.90
2019-05-17T04:31:22.882Z,99.90
2019-05-17T04:33:53.648Z,99.90
2019-05-17T04:36:22.698Z,99.90
2019-05-17T04:38:52.630Z,99.90
2019-05-17T04:41:39.535Z,99.90
2019-05-17T04:43:53.171Z,99.90
2019-05-17T04:46:23.649Z,99.90
2019-05-17T04:48:53.558Z,99.90
2019-05-17T04:51:23.201Z,99.90
2019-05-17T04:53:52.970Z,99.90
2019-05-17T04:56:22.788Z,99.90
2019-05-17T04:58:54.298Z,99.90
2019-05-17T05:01:23.648Z,99.90
2019-05-17T05:03:52.609Z,99.90
2019-05-17T05:06:23.314Z,99.90
2019-05-17T05:08:52.838Z,99.90
2019-05-17T05:11:58.665Z,99.90
2019-05-17T05:14:19.525Z,99.90
2019-05-17T05:18:25.019Z,99.90
2019-05-17T05:20:54.457Z,99.90
2019-05-17T05:23:24.220Z,99.90
2019-05-17T05:25:53.017Z,99.90
2019-05-17T05:28:22.622Z,99.90
2019-05-17T05:30:52.764Z,99.90
2019-05-17T05:33:22.395Z,99.90
2019-05-17T05:35:51.945Z,99.90
2019-05-17T05:38:21.750Z,99.90
2019-05-17T05:40:52.185Z,99.90
2019-05-17T05:43:22.551Z,99.90
2019-05-17T05:45:53.614Z,99.00
2019-05-17T05:48:23.215Z,99.10
2019-05-17T05:50:52.690Z,99.10
2019-05-17T05:53:22.204Z,99.10
2019-05-17T05:55:51.913Z,99.00
2019-05-17T05:58:24.029Z,98.60
2019-05-17T06:00:53.268Z,97.90
2019-05-17T06:03:23.026Z,96.10
2019-05-17T06:05:52.660Z,95.70
2019-05-17T06:08:22.781Z,95.40
2019-05-17T06:10:53.074Z,95.10
2019-05-17T06:13:22.937Z,95.80
2019-05-17T06:15:52.414Z,96.80
2019-05-17T06:18:22.729Z,95.30
2019-05-17T06:20:52.569Z,94.10
2019-05-17T06:23:23.417Z,94.40
2019-05-17T06:25:53.158Z,94.60
2019-05-17T06:28:22.619Z,94.50
2019-05-17T06:30:52.295Z,94.30
2019-05-17T06:33:30.631Z,92.90
2019-05-17T06:35:53.014Z,92.60
2019-05-17T06:38:22.608Z,92.10
2019-05-17T06:40:52.452Z,92.10
2019-05-17T06:43:21.982Z,92.30
2019-05-17T06:45:52.198Z,92.20
2019-05-17T06:48:22.591Z,92.20
2019-05-17T06:50:52.251Z,91.80
2019-05-17T06:53:22.059Z,92.20
2019-05-17T06:55:53.264Z,92.00
2019-05-17T06:58:22.350Z,91.90
2019-05-17T07:00:51.066Z,90.40
2019-05-17T07:03:20.434Z,90.00
2019-05-17T07:05:54.395Z,88.70
2019-05-17T07:08:23.845Z,88.80
2019-05-17T07:10:53.319Z,88.90
2019-05-17T07:13:22.777Z,88.40
2019-05-17T07:15:52.254Z,87.40
2019-05-17T07:18:21.713Z,87.00
2019-05-17T07:20:51.193Z,87.00
2019-05-17T07:23:20.652Z,86.90
2019-05-17T07:25:50.487Z,85.10
2019-05-17T07:28:21.054Z,85.00
2019-05-17T07:30:50.544Z,83.80
2019-05-17T07:33:20.134Z,85.40
2019-05-17T07:35:50.215Z,83.60
2019-05-17T07:38:20.082Z,83.70
2019-05-17T07:40:50.286Z,81.80
2019-05-17T07:43:20.801Z,81.40
2019-05-17T07:45:50.541Z,80.90
2019-05-17T07:48:20.193Z,79.20
2019-05-17T07:50:50.373Z,79.60
2019-05-17T07:53:21.209Z,79.30
2019-05-17T07:55:50.762Z,80.60
2019-05-17T07:58:21.368Z,80.30
2019-05-17T08:00:52.122Z,77.60
2019-05-17T08:03:24.723Z,78.50
2019-05-17T08:05:52.683Z,77.70
2019-05-17T08:08:22.167Z,77.90
2019-05-17T08:10:51.618Z,77.60
2019-05-17T08:13:30.048Z,78.10
2019-05-17T08:15:52.165Z,78.40
2019-05-17T08:18:21.662Z,77.10
2019-05-17T08:20:51.113Z,74.20
2019-05-17T08:23:20.627Z,73.10
2019-05-17T08:25:55.619Z,73.00
2019-05-17T08:28:21.695Z,74.40
2019-05-17T08:30:51.317Z,73.40
2019-05-17T08:33:21.765Z,71.90
2019-05-17T08:35:51.221Z,70.80
2019-05-17T08:38:20.770Z,69.20
2019-05-17T08:40:51.308Z,68.70
2019-05-17T08:43:21.455Z,69.00
2019-05-17T08:45:50.934Z,66.90
2019-05-17T08:48:20.741Z,64.90
2019-05-17T08:50:50.296Z,64.50
2019-05-17T08:53:20.011Z,62.50
2019-05-17T08:55:50.074Z,61.10
2019-05-17T08:58:21.653Z,58.00
2019-05-17T09:00:50.797Z,56.80
2019-05-17T09:03:20.278Z,54.80
2019-05-17T09:05:52.632Z,53.80
2019-05-17T09:08:20.843Z,52.50
2019-05-17T09:10:50.674Z,54.20
2019-05-17T09:13:19.743Z,54.40
2019-05-17T09:15:49.542Z,54.50
2019-05-17T09:18:20.627Z,54.10
2019-05-17T09:20:50.257Z,54.40
2019-05-17T09:23:19.918Z,52.50
2019-05-17T09:25:50.182Z,51.90
2019-05-17T09:28:20.532Z,51.70
2019-05-17T09:30:50.783Z,51.00
2019-05-17T09:33:20.395Z,51.20
2019-05-17T09:35:50.160Z,52.90
2019-05-17T09:38:20.332Z,51.50
2019-05-17T09:40:50.448Z,52.30
2019-05-17T09:43:20.691Z,52.30
2019-05-17T09:45:50.874Z,52.30
2019-05-17T09:48:20.617Z,50.00
2019-05-17T09:50:50.540Z,52.70
2019-05-17T09:53:20.443Z,51.20
2019-05-17T09:55:49.990Z,51.00
2019-05-17T09:58:21.668Z,51.50
2019-05-17T10:00:50.909Z,52.80
2019-05-17T10:03:23.869Z,48.80
2019-05-17T10:05:51.485Z,49.90
2019-05-17T10:08:20.965Z,52.60
2019-05-17T10:11:04.227Z,52.70
2019-05-17T10:13:21.666Z,53.40
2019-05-17T10:15:51.111Z,55.80
2019-05-17T10:18:20.585Z,53.00
2019-05-17T10:20:50.625Z,52.80
2019-05-17T10:23:20.325Z,53.40
2019-05-17T10:25:49.781Z,53.20
2019-05-17T10:28:20.564Z,53.00
2019-05-17T10:30:52.187Z,53.70
2019-05-17T10:33:21.311Z,51.30
2019-05-17T10:35:50.829Z,49.70
2019-05-17T10:38:20.307Z,48.60
2019-05-17T10:40:50.155Z,47.80
2019-05-17T10:43:20.431Z,48.00
2019-05-17T10:45:49.948Z,48.00
2019-05-17T10:48:21.242Z,47.10
2019-05-17T10:50:50.596Z,49.40
2019-05-17T10:53:20.543Z,48.80
2019-05-17T10:55:50.124Z,46.70
2019-05-17T10:58:21.274Z,47.50
2019-05-17T11:00:51.822Z,47.10
2019-05-17T11:03:21.393Z,47.30
2019-05-17T11:05:50.959Z,46.70
2019-05-17T11:08:20.414Z,47.10
2019-05-17T11:10:50.288Z,45.00
2019-05-17T11:13:20.925Z,47.20
2019-05-17T11:15:51.580Z,47.60
2019-05-17T11:18:21.033Z,48.50
2019-05-17T11:20:50.517Z,47.90
2019-05-17T11:23:19.980Z,50.70
2019-05-17T11:25:49.458Z,48.60
2019-05-17T11:32:04.618Z,50.00
2019-05-17T11:34:34.097Z,50.40
2019-05-17T11:37:03.549Z,50.20
2019-05-17T11:39:33.097Z,52.80
2019-05-17T11:42:02.553Z,52.00
2019-05-17T11:44:32.010Z,48.90
2019-05-17T11:47:01.498Z,49.40
2019-05-17T11:49:31.039Z,46.80
2019-05-17T11:52:00.585Z,49.80
2019-05-17T11:54:30.039Z,48.20
2019-05-17T11:56:59.521Z,50.40
2019-05-17T11:59:28.970Z,49.00
2019-05-17T12:01:58.514Z,48.70
2019-05-17T12:04:27.917Z,49.30
2019-05-17T12:06:57.457Z,48.50
2019-05-17T12:09:37.046Z,50.10
2019-05-17T12:11:58.947Z,48.40
2019-05-17T12:14:28.474Z,50.40
2019-05-17T12:16:58.021Z,48.00
2019-05-17T12:19:37.195Z,47.70
2019-05-17T12:22:06.961Z,47.00
2019-05-17T12:24:36.492Z,44.50
2019-05-17T12:27:06.034Z,46.70
2019-05-17T12:29:35.494Z,46.90
2019-05-17T12:32:05.114Z,44.60
2019-05-17T12:34:34.586Z,45.00
2019-05-17T12:37:04.616Z,45.40
2019-05-17T12:39:34.200Z,44.80
2019-05-17T12:42:04.066Z,44.70
2019-05-17T12:44:36.918Z,45.60
2019-05-17T12:47:04.837Z,45.40
2019-05-17T12:49:34.293Z,47.00
2019-05-17T12:52:03.828Z,46.00
2019-05-17T12:54:33.286Z,46.10
2019-05-17T12:57:04.798Z,47.60
2019-05-17T12:59:33.899Z,48.30
2019-05-17T13:02:03.780Z,44.70
2019-05-17T13:04:32.457Z,45.90
2019-05-17T13:07:01.864Z,46.50
2019-05-17T13:09:31.323Z,44.80
2019-05-17T13:12:00.815Z,43.90
2019-05-17T13:14:39.483Z,43.10
2019-05-17T13:17:10.117Z,42.40
2019-05-17T13:19:39.631Z,46.30
2019-05-17T13:22:09.367Z,47.50
2019-05-17T13:24:38.991Z,45.20
2019-05-17T13:27:39.636Z,44.80
2019-05-17T13:30:09.954Z,44.70
2019-05-17T13:32:39.739Z,46.30
2019-05-17T13:35:09.941Z,46.10
2019-05-17T13:37:39.508Z,45.10
2019-05-17T13:40:09.820Z,45.30
2019-05-17T13:42:39.322Z,46.30
2019-05-17T13:45:09.762Z,44.80
2019-05-17T13:47:39.333Z,42.90
2019-05-17T13:50:09.438Z,43.70
2019-05-17T13:52:38.948Z,44.00
2019-05-17T13:55:09.167Z,44.50
2019-05-17T13:57:38.663Z,43.60
2019-05-17T14:00:09.768Z,43.10
2019-05-17T14:02:39.332Z,42.60
2019-05-17T14:05:09.910Z,43.10
2019-05-17T14:07:39.423Z,43.20
2019-05-17T14:10:26.370Z,40.40
2019-05-17T14:12:41.282Z,42.40
2019-05-17T14:15:11.197Z,41.50
2019-05-17T14:17:39.982Z,41.10
2019-05-17T14:20:10.956Z,40.90
2019-05-17T14:22:39.765Z,40.30
2019-05-17T14:25:09.698Z,41.20
2019-05-17T14:27:39.269Z,41.30
2019-05-17T14:30:10.381Z,41.10
2019-05-17T14:32:39.875Z,39.30
2019-05-17T14:35:10.158Z,39.50
2019-05-17T14:37:39.887Z,38.20
2019-05-17T14:40:09.623Z,37.60
2019-05-17T14:42:43.099Z,38.90
2019-05-17T14:45:12.921Z,38.00
2019-05-17T14:47:41.639Z,39.60
2019-05-17T14:50:11.387Z,42.40
2019-05-17T14:52:40.116Z,38.30
2019-05-17T14:55:09.768Z,39.40
2019-05-17T14:57:42.807Z,42.20
2019-05-17T15:00:10.948Z,38.60
2019-05-17T15:02:40.457Z,38.80
2019-05-17T15:05:10.411Z,37.30
2019-05-17T15:07:39.142Z,38.90
2019-05-17T15:10:08.948Z,38.20
2019-05-17T15:12:39.528Z,39.70
2019-05-17T15:15:09.453Z,38.00
2019-05-17T15:17:38.168Z,39.20
2019-05-17T15:20:19.772Z,39.70
2019-05-17T15:22:49.427Z,39.80
2019-05-17T15:25:19.087Z,38.90
2019-05-17T15:27:48.668Z,38.30
2019-05-17T15:30:18.437Z,37.40
2019-05-17T15:32:48.029Z,37.90
2019-05-17T15:35:17.506Z,39.70
2019-05-17T15:37:47.185Z,41.20
2019-05-17T15:40:17.524Z,41.00
2019-05-17T15:42:47.108Z,42.90
2019-05-17T15:45:17.684Z,41.40
2019-05-17T15:47:47.254Z,40.30
2019-05-17T15:50:17.074Z,41.60
2019-05-17T15:52:46.596Z,39.90
2019-05-17T15:55:16.206Z,40.60
2019-05-17T15:57:45.728Z,40.80
2019-05-17T16:00:15.668Z,43.40
2019-05-17T16:02:44.350Z,41.10
2019-05-17T16:05:15.481Z,41.10
2019-05-17T16:07:45.107Z,41.80
2019-05-17T16:10:15.056Z,42.00
2019-05-17T16:12:59.238Z,42.60
2019-05-17T16:15:15.138Z,42.90
2019-05-17T16:17:44.617Z,41.70
2019-05-17T16:20:16.943Z,41.70
2019-05-17T16:22:45.770Z,42.90
2019-05-17T16:25:15.389Z,44.40
2019-05-17T16:27:44.846Z,45.80
2019-05-17T16:30:15.078Z,44.40
2019-05-17T16:32:44.781Z,44.40
2019-05-17T16:35:14.491Z,44.30
2019-05-17T16:37:44.043Z,44.30
2019-05-17T16:40:13.598Z,44.30
2019-05-17T16:42:43.480Z,43.00
2019-05-17T16:45:13.822Z,43.90
2019-05-17T16:47:43.208Z,45.00
2019-05-17T16:50:13.145Z,45.30
2019-05-17T16:52:44.523Z,45.50
2019-05-17T16:55:14.886Z,47.20
2019-05-17T16:57:44.429Z,48.60
2019-05-17T17:00:32.020Z,45.60
2019-05-17T17:03:01.595Z,46.60
2019-05-17T17:05:31.196Z,47.50
2019-05-17T17:08:00.654Z,48.90
2019-05-17T17:10:30.139Z,49.50
2019-05-17T17:12:59.678Z,48.50
2019-05-17T17:15:29.443Z,49.90
2019-05-17T17:17:58.915Z,49.40
2019-05-17T17:20:28.568Z,49.70
2019-05-17T17:22:59.294Z,49.50
2019-05-17T17:25:28.951Z,50.50
2019-05-17T17:27:58.574Z,51.00
2019-05-17T17:30:28.145Z,51.80
2019-05-17T17:32:57.810Z,52.10
2019-05-17T17:35:27.370Z,52.50
2019-05-17T17:37:57.018Z,53.10
2019-05-17T17:40:26.830Z,53.60
2019-05-17T17:42:56.478Z,55.00
2019-05-17T17:45:27.654Z,55.70
2019-05-17T17:47:58.099Z,53.20
2019-05-17T17:50:27.686Z,53.40
2019-05-17T17:52:57.418Z,54.00
2019-05-17T17:55:26.926Z,54.50
2019-05-17T17:57:56.471Z,56.10
2019-05-17T18:00:26.113Z,56.30
2019-05-17T18:02:55.574Z,56.50
2019-05-17T18:05:25.368Z,56.90
2019-05-17T18:07:54.839Z,58.20
2019-05-17T18:10:30.196Z,59.20
2019-05-17T18:13:00.847Z,59.90
2019-05-17T18:15:36.311Z,60.70
2019-05-17T18:18:05.931Z,61.60
2019-05-17T18:20:35.607Z,62.40
2019-05-17T18:23:05.511Z,63.10
2019-05-17T18:25:35.351Z,63.50
2019-05-17T18:28:05.075Z,64.30
2019-05-17T18:30:34.916Z,65.40
2019-05-17T18:33:05.011Z,66.60
2019-05-17T18:35:34.103Z,67.10
2019-05-17T18:38:04.053Z,67.40
2019-05-17T18:40:34.712Z,68.60
2019-05-17T18:43:07.317Z,69.20
2019-05-17T18:45:37.041Z,69.80
2019-05-17T18:48:06.745Z,70.20
2019-05-17T18:50:36.602Z,70.80
2019-05-17T18:53:12.965Z,71.40
2019-05-17T18:55:37.595Z,71.90
2019-05-17T18:58:07.250Z,72.60
2019-05-17T19:00:36.835Z,72.80
2019-05-17T19:03:06.382Z,73.30
2019-05-17T19:05:37.864Z,74.50
2019-05-17T19:08:08.807Z,74.50
2019-05-17T19:10:38.390Z,75.00
2019-05-17T19:13:23.054Z,75.40
2019-05-17T19:15:52.638Z,75.90
2019-05-17T19:18:22.114Z,76.30
2019-05-17T19:20:51.706Z,77.00
2019-05-17T19:23:21.299Z,77.50
2019-05-17T19:25:51.091Z,77.90
2019-05-17T19:28:20.553Z,78.50
2019-05-17T19:30:50.051Z,79.20
2019-05-17T19:33:19.894Z,79.10
2019-05-17T19:35:49.391Z,79.50
2019-05-17T19:38:18.875Z,79.70
2019-05-17T19:40:48.454Z,80.10
2019-05-17T19:43:17.930Z,80.30
2019-05-17T19:45:47.435Z,80.70
2019-05-17T19:48:19.672Z,81.10
2019-05-17T19:50:48.120Z,81.30
2019-05-17T19:53:17.729Z,81.20
2019-05-17T19:55:47.327Z,81.70
2019-05-17T19:58:16.861Z,81.90
2019-05-17T20:00:46.631Z,82.30
2019-05-17T20:03:16.191Z,82.20
2019-05-17T20:05:45.690Z,82.10
2019-05-17T20:08:15.261Z,82.40
2019-05-17T20:10:44.852Z,82.50
2019-05-17T20:13:14.385Z,82.80
2019-05-17T20:15:43.923Z,83.20
2019-05-17T20:18:13.437Z,83.60
2019-05-17T20:20:42.977Z,83.40
2019-05-17T20:23:12.504Z,84.10
2019-05-17T20:25:41.974Z,84.40
2019-05-17T20:28:12.444Z,84.40
2019-05-17T20:30:42.012Z,84.60
2019-05-17T20:33:11.788Z,85.00
2019-05-17T20:35:41.278Z,85.40
2019-05-17T20:38:17.795Z,85.80
2019-05-17T20:40:47.259Z,85.70
2019-05-17T20:43:16.754Z,86.10
2019-05-17T20:45:46.246Z,86.20
2019-05-17T20:48:16.995Z,86.60
2019-05-17T20:50:46.455Z,86.80
2019-05-17T20:53:18.916Z,86.60
2019-05-17T20:55:47.103Z,86.90
2019-05-17T20:58:16.602Z,87.10
2019-05-17T21:00:47.048Z,87.20
2019-05-17T21:03:16.556Z,87.20
2019-05-17T21:05:46.043Z,87.30
2019-05-17T21:08:15.527Z,87.60
2019-05-17T21:10:45.016Z,88.00
2019-05-17T21:13:14.526Z,88.00
2019-05-17T21:15:47.759Z,88.00
2019-05-17T21:18:15.123Z,87.80
2019-05-17T21:20:44.610Z,88.00
2019-05-17T21:23:14.212Z,87.50
2019-05-17T21:25:44.371Z,87.80
2019-05-17T21:28:13.882Z,87.90
2019-05-17T21:30:43.387Z,88.10
2019-05-17T21:33:12.906Z,87.90
2019-05-17T21:35:42.399Z,87.70
2019-05-17T21:38:12.876Z,87.60
2019-05-17T21:40:43.174Z,87.60
2019-05-17T21:43:13.380Z,87.40
2019-05-17T21:45:43.679Z,87.80
2019-05-17T21:48:13.965Z,87.70
2019-05-17T21:50:44.203Z,88.00
2019-05-17T21:53:15.424Z,87.60
2019-05-17T21:55:45.026Z,87.80
2019-05-17T21:58:21.724Z,87.90
2019-05-17T22:01:03.673Z,88.20
2019-05-17T22:03:33.257Z,88.00
2019-05-17T22:06:03.692Z,88.50
2019-05-17T22:08:33.203Z,89.00
2019-05-17T22:11:02.713Z,88.90
2019-05-17T22:13:32.296Z,89.20
2019-05-17T22:16:02.039Z,89.70
2019-05-17T22:18:31.532Z,89.40
2019-05-17T22:21:01.022Z,89.50
2019-05-17T22:23:30.552Z,89.30
2019-05-17T22:26:00.040Z,89.30
2019-05-17T22:28:29.530Z,89.30
2019-05-17T22:30:59.005Z,89.60
2019-05-17T22:33:28.498Z,89.90
2019-05-17T22:35:57.979Z,89.60
2019-05-17T22:38:27.549Z,90.00
2019-05-17T22:40:58.108Z,90.20
2019-05-17T22:43:27.605Z,90.20
2019-05-17T22:46:02.882Z,90.20
2019-05-17T22:48:32.372Z,90.40
2019-05-17T22:51:01.864Z,90.60
2019-05-17T22:53:31.342Z,90.60
2019-05-17T22:56:00.814Z,90.50
2019-05-17T22:58:30.320Z,90.50
2019-05-17T23:00:59.779Z,90.50
2019-05-17T23:03:29.354Z,90.80
2019-05-17T23:05:58.822Z,91.10
2019-05-17T23:08:28.331Z,91.00
2019-05-17T23:10:57.808Z,91.30
2019-05-17T23:13:27.322Z,91.70
2019-05-17T23:16:04.205Z,91.70
2019-05-17T23:18:34.745Z,91.40
2019-05-17T23:21:04.673Z,92.10
2019-05-17T23:23:34.159Z,92.20
2019-05-17T23:26:03.800Z,92.40
2019-05-17T23:28:33.334Z,92.30
2019-05-17T23:31:02.809Z,92.60
2019-05-17T23:33:32.261Z,92.60
2019-05-17T23:36:01.738Z,92.80
2019-05-17T23:38:31.193Z,93.50
2019-05-17T23:41:00.666Z,93.20
2019-05-17T23:43:30.114Z,93.60
2019-05-17T23:45:59.581Z,93.90
2019-05-17T23:48:29.029Z,94.10
2019-05-17T23:50:58.501Z,94.10
2019-05-17T23:53:27.942Z,93.80
2019-05-17T23:55:57.425Z,94.00
2019-05-17T23:58:26.850Z,93.80
